Time;durP1;ratioP1;P1;durP2;ratioP2;P2;SDS_P1;SDS_P2;PMS_P1;PMS_P2;Temp;Humidity;BMP_temperature;BMP_pressure;BME280_temperature;BME280_humidity;BME280_pressure;Samples;Min_cycle;Max_cycle;Signal;HPM_P1;HPM_P2
2021/11/17 02:26:33;;;;;;;21.58;12.32;;;9.30;95.70;;;;;;5059021;28;20036;-62
2021/11/17 02:29:19;;;;;;;19.65;11.10;;;9.30;95.70;;;;;;5072130;28;20033;-63
2021/11/17 02:32:03;;;;;;;21.63;12.02;;;9.20;95.60;;;;;;5057460;28;20036;-63
2021/11/17 02:35:14;;;;;;;18.70;10.88;;;9.20;95.60;;;;;;5052049;28;20025;-63
2021/11/17 02:37:45;;;;;;;21.15;12.32;;;9.20;95.60;;;;;;4983485;28;20100;-63
2021/11/17 02:40:38;;;;;;;20.65;10.93;;;9.20;95.60;;;;;;5057728;28;20139;-63
2021/11/17 02:43:21;;;;;;;21.85;11.88;;;9.20;95.60;;;;;;5067004;28;20144;-63
2021/11/17 02:46:11;;;;;;;21.45;11.10;;;9.20;95.60;;;;;;5070206;28;20037;-63
2021/11/17 02:48:46;;;;;;;18.80;11.50;;;9.20;95.60;;;;;;5052395;28;20393;-63
2021/11/17 02:51:28;;;;;;;;;;;9.20;95.50;;;;;;5057040;28;20024;-63
2021/11/17 02:54:03;;;;;;;18.95;9.55;;;9.20;95.50;;;;;;5051389;28;19915;-63
2021/11/17 02:56:59;;;;;;;18.67;12.20;;;9.20;95.50;;;;;;5050504;28;20045;-63
2021/11/17 02:59:41;;;;;;;18.50;11.10;;;9.10;95.50;;;;;;5050619;28;20040;-63
2021/11/17 03:02:15;;;;;;;18.50;10.70;;;9.10;95.50;;;;;;5066986;28;20034;-63
2021/11/17 03:05:03;;;;;;;18.67;10.52;;;9.10;95.50;;;;;;5071221;28;20035;-63
2021/11/17 03:07:41;;;;;;;19.90;12.52;;;9.10;95.50;;;;;;5052958;28;20094;-63
2021/11/17 03:10:28;;;;;;;20.73;11.00;;;9.10;95.50;;;;;;5051012;28;20454;-63
2021/11/17 03:13:02;;;;;;;17.35;10.95;;;9.10;95.60;;;;;;5051428;28;20033;-63
2021/11/17 03:15:43;;;;;;;17.77;11.32;;;9.10;95.60;;;;;;5052358;28;20137;-63
2021/11/17 03:18:30;;;;;;;22.15;11.93;;;9.10;95.60;;;;;;5075402;28;20060;-63
2021/11/17 03:21:21;;;;;;;14.70;9.65;;;9.10;95.60;;;;;;5072441;28;20036;-62
2021/11/17 03:23:55;;;;;;;17.85;9.80;;;9.10;95.40;;;;;;5074882;28;20107;-63
2021/11/17 03:26:37;;;;;;;13.35;8.65;;;9.00;95.50;;;;;;5066109;28;20047;-62
2021/11/17 03:29:22;;;;;;;17.65;9.80;;;9.00;95.50;;;;;;5055183;28;20032;-62
2021/11/17 03:31:50;;;;;;;16.35;9.98;;;9.00;95.40;;;;;;5055266;28;20037;-62
2021/11/17 03:34:43;;;;;;;16.52;10.88;;;8.90;95.40;;;;;;5054992;28;20052;-62
2021/11/17 03:37:24;;;;;;;19.42;9.68;;;8.90;95.50;;;;;;5055209;28;20032;-62
2021/11/17 03:40:20;;;;;;;17.33;9.55;;;8.90;95.50;;;;;;5058628;28;20036;-62
2021/11/17 03:43:19;;;;;;;22.52;9.25;;;8.90;95.50;;;;;;5073578;28;20036;-62
2021/11/17 03:45:57;;;;;;;16.90;9.88;;;8.90;95.50;;;;;;5070248;28;20032;-62
2021/11/17 03:48:41;;;;;;;16.70;10.25;;;8.90;95.50;;;;;;5054440;28;20071;-63
2021/11/17 03:51:19;;;;;;;16.23;10.02;;;8.90;95.50;;;;;;5055102;28;20037;-63
2021/11/17 03:54:06;;;;;;;15.52;9.32;;;8.90;95.40;;;;;;5054534;28;20052;-63
2021/11/17 03:56:31;;;;;;;17.27;10.55;;;8.80;95.40;;;;;;5055879;28;20041;-64
2021/11/17 03:59:17;;;;;;;16.83;10.05;;;8.80;95.40;;;;;;5073052;28;20050;-63
2021/11/17 04:01:51;;;;;;;15.82;9.80;;;8.80;95.50;;;;;;5059117;28;20186;-63
2021/11/17 04:04:32;;;;;;;16.02;8.75;;;8.80;95.40;;;;;;5054582;28;20021;-63
2021/11/17 04:07:25;;;;;;;13.45;8.70;;;8.80;95.40;;;;;;5054630;28;20120;-63
2021/11/17 04:10:24;;;;;;;14.48;8.45;;;8.80;95.40;;;;;;5054687;28;20033;-63
2021/11/17 04:13:19;;;;;;;14.10;8.23;;;8.80;95.30;;;;;;5073658;28;20036;-62
2021/11/17 04:16:09;;;;;;;13.77;8.43;;;8.80;95.20;;;;;;5063048;28;20492;-63
2021/11/17 04:19:08;;;;;;;13.70;8.20;;;8.80;95.20;;;;;;5055532;28;20040;-63
2021/11/17 04:21:50;;;;;;;13.48;7.35;;;8.80;95.20;;;;;;5063444;28;20068;-63
2021/11/17 04:24:48;;;;;;;14.38;7.63;;;8.80;95.10;;;;;;5054094;28;20043;-63
2021/11/17 04:27:39;;;;;;;11.00;6.30;;;8.80;95.10;;;;;;5059610;28;20036;-64
2021/11/17 04:30:30;;;;;;;12.80;6.65;;;8.80;95.00;;;;;;5074045;28;20106;-63
2021/11/17 04:33:27;;;;;;;12.45;6.80;;;8.80;95.00;;;;;;5065690;28;20029;-63
2021/11/17 04:36:08;;;;;;;10.82;7.28;;;8.80;95.10;;;;;;5052877;28;20377;-63
2021/11/17 04:38:43;;;;;;;13.77;6.95;;;8.70;95.00;;;;;;5053682;28;20575;-63
2021/11/17 04:41:32;;;;;;;13.40;7.22;;;8.80;95.10;;;;;;5053576;28;20037;-63
2021/11/17 04:44:32;;;;;;;12.43;7.32;;;8.80;95.20;;;;;;5053787;28;20029;-63
2021/11/17 04:47:07;;;;;;;10.45;6.78;;;8.70;95.20;;;;;;5053615;28;20433;-63
2021/11/17 04:49:48;;;;;;;10.50;5.50;;;8.70;95.20;;;;;;5073367;28;20036;-63
2021/11/17 04:52:29;;;;;;;7.57;5.25;;;8.70;95.10;;;;;;5068049;28;20040;-63
2021/11/17 04:55:22;;;;;;;7.40;5.20;;;8.70;95.00;;;;;;5072114;28;20032;-63
2021/11/17 04:58:14;;;;;;;9.43;5.00;;;8.70;94.90;;;;;;5068233;28;20146;-63
2021/11/17 05:01:05;;;;;;;8.90;5.20;;;8.60;94.90;;;;;;5054744;28;20040;-63
2021/11/17 05:03:52;;;;;;;7.53;4.70;;;8.60;94.90;;;;;;5053154;28;20405;-64
2021/11/17 05:06:50;;;;;;;6.75;4.32;;;8.60;94.90;;;;;;5056663;28;20024;-64
2021/11/17 05:09:38;;;;;;;7.60;4.82;;;8.60;95.00;;;;;;5066541;28;20357;-64
2021/11/17 05:12:31;;;;;;;7.20;4.25;;;8.60;94.80;;;;;;5070752;28;20037;-64
2021/11/17 05:15:22;;;;;;;7.32;4.28;;;8.60;94.80;;;;;;5066797;28;20512;-64
2021/11/17 05:18:22;;;;;;;8.48;5.10;;;8.60;94.80;;;;;;5057796;28;20393;-64
2021/11/17 05:21:16;;;;;;;7.35;4.55;;;8.60;94.90;;;;;;5055668;28;20060;-64
2021/11/17 05:23:55;;;;;;;6.35;4.13;;;8.50;94.80;;;;;;5051848;28;20064;-64
2021/11/17 05:26:30;;;;;;;8.48;4.75;;;8.60;94.80;;;;;;5058514;28;20412;-64
2021/11/17 05:29:23;;;;;;;8.25;4.68;;;8.60;94.80;;;;;;5052794;28;20021;-64
2021/11/17 05:32:30;;;;;;;9.70;5.30;;;8.60;94.80;;;;;;5053146;28;20504;-64
2021/11/17 05:35:22;;;;;;;7.65;5.05;;;8.60;94.80;;;;;;5071075;28;20032;-64
2021/11/17 05:38:09;;;;;;;9.57;5.82;;;8.60;94.90;;;;;;5052077;28;20029;-63
2021/11/17 05:40:59;;;;;;;10.48;5.70;;;8.60;94.90;;;;;;5065773;28;20086;-63
2021/11/17 05:43:42;;;;;;;10.18;6.43;;;8.60;94.90;;;;;;5059197;28;20136;-63
2021/11/17 05:46:14;;;;;;;12.70;6.28;;;8.60;95.00;;;;;;5057424;28;20021;-63
2021/11/17 05:49:08;;;;;;;9.75;6.05;;;8.50;95.00;;;;;;5058383;28;20024;-63
2021/11/17 05:51:58;;;;;;;10.63;6.22;;;8.60;95.20;;;;;;5056219;28;20044;-64
2021/11/17 05:54:36;;;;;;;10.05;5.75;;;8.60;95.30;;;;;;5052571;28;20110;-63
2021/11/17 05:57:26;;;;;;;10.32;7.20;;;8.60;95.30;;;;;;5051562;28;20060;-63
2021/11/17 06:00:23;;;;;;;12.43;7.20;;;8.60;95.40;;;;;;5065616;28;20094;-64
2021/11/17 06:03:16;;;;;;;11.32;7.93;;;8.60;95.40;;;;;;5052706;28;20378;-63
2021/11/17 06:05:42;;;;;;;12.38;6.53;;;8.60;95.40;;;;;;5053824;28;20024;-64
2021/11/17 06:08:07;;;;;;;11.93;6.35;;;8.60;95.50;;;;;;5064847;28;20029;-63
2021/11/17 06:10:36;;;;;;;10.27;6.70;;;8.60;95.50;;;;;;5051963;28;20033;-64
2021/11/17 06:13:04;;;;;;;10.55;6.70;;;8.60;95.60;;;;;;5051748;28;20497;-64
2021/11/17 06:15:31;;;;;;;12.38;6.75;;;8.60;95.70;;;;;;5056989;28;20051;-64
2021/11/17 06:17:57;;;;;;;11.07;6.90;;;8.60;95.70;;;;;;5053616;28;20112;-64
2021/11/17 06:20:24;;;;;;;10.90;7.57;;;8.60;95.80;;;;;;5051589;28;20041;-64
2021/11/17 06:22:53;;;;;;;10.57;6.40;;;8.60;95.80;;;;;;5057580;28;20028;-64
2021/11/17 06:25:19;;;;;;;10.23;7.03;;;8.50;95.80;;;;;;5051788;28;20082;-63
2021/11/17 06:27:51;;;;;;;12.52;7.03;;;8.60;95.90;;;;;;5064735;28;20024;-64
2021/11/17 06:30:19;;;;;;;12.07;6.85;;;8.60;95.90;;;;;;5064875;28;20104;-65
2021/11/17 06:32:44;;;;;;;11.75;6.47;;;8.60;96.00;;;;;;5053700;28;20063;-65
2021/11/17 06:35:10;;;;;;;12.07;7.03;;;8.60;96.00;;;;;;5055320;28;20245;-65
2021/11/17 06:37:36;;;;;;;12.00;6.65;;;8.60;96.00;;;;;;5064306;28;20092;-65
2021/11/17 06:40:05;;;;;;;12.70;7.03;;;8.60;96.00;;;;;;5069610;28;20033;-65
2021/11/17 06:42:34;;;;;;;13.90;7.20;;;8.60;96.00;;;;;;5070047;28;20032;-65
2021/11/17 06:45:03;;;;;;;11.35;6.72;;;8.60;96.00;;;;;;5065078;28;20038;-65
2021/11/17 06:47:28;;;;;;;12.85;7.40;;;8.60;96.10;;;;;;5053304;28;20060;-65
2021/11/17 06:49:54;;;;;;;13.05;7.88;;;8.60;96.10;;;;;;5060785;28;20376;-65
2021/11/17 06:52:23;;;;;;;14.35;7.53;;;8.60;96.10;;;;;;5052372;28;20032;-66
2021/11/17 06:54:48;;;;;;;10.85;7.10;;;8.60;96.20;;;;;;5053957;28;20064;-65
2021/11/17 06:57:14;;;;;;;14.23;7.45;;;8.60;96.20;;;;;;5064374;28;20068;-65
2021/11/17 06:59:40;;;;;;;12.68;7.47;;;8.60;96.20;;;;;;5071290;28;20036;-66
2021/11/17 07:02:06;;;;;;;10.65;7.13;;;8.50;96.10;;;;;;5054470;28;20481;-65
2021/11/17 07:04:33;;;;;;;11.73;7.55;;;8.60;96.20;;;;;;5051111;28;20037;-65
2021/11/17 07:06:58;;;;;;;13.32;8.32;;;8.50;96.10;;;;;;5051846;28;20029;-65
2021/11/17 07:09:24;;;;;;;10.23;7.00;;;8.50;96.10;;;;;;5051338;28;20030;-65
2021/11/17 07:11:49;;;;;;;13.27;7.32;;;8.50;96.20;;;;;;5050847;28;20033;-65
2021/11/17 07:14:16;;;;;;;14.60;7.57;;;8.60;96.20;;;;;;5052001;28;20108;-65
2021/11/17 07:16:42;;;;;;;11.45;7.70;;;8.60;96.20;;;;;;5068693;28;20036;-65
2021/11/17 07:19:09;;;;;;;11.77;7.95;;;8.50;96.20;;;;;;5058704;28;20477;-66
2021/11/17 07:21:35;;;;;;;13.25;8.57;;;8.50;96.20;;;;;;5051084;28;20037;-65
2021/11/17 07:24:01;;;;;;;16.23;8.13;;;8.50;96.30;;;;;;5056964;28;20028;-65
2021/11/17 07:26:27;;;;;;;13.80;8.05;;;8.50;96.40;;;;;;5060496;28;20033;-64
2021/11/17 07:28:52;;;;;;;13.52;8.35;;;8.60;96.40;;;;;;5051026;28;20496;-65
2021/11/17 07:31:18;;;;;;;11.13;7.35;;;8.60;96.30;;;;;;5055084;28;20025;-64
2021/11/17 07:33:44;;;;;;;13.18;7.25;;;8.70;96.30;;;;;;5055961;28;20067;-64
2021/11/17 07:36:10;;;;;;;12.40;7.47;;;8.60;96.30;;;;;;5056144;28;20124;-64
2021/11/17 07:38:36;;;;;;;10.77;6.50;;;8.70;96.30;;;;;;5050119;28;20485;-63
2021/11/17 07:41:01;;;;;;;12.80;7.72;;;8.70;96.30;;;;;;5058959;28;20043;-64
2021/11/17 07:43:28;;;;;;;11.75;7.70;;;8.70;96.30;;;;;;5055930;28;20033;-63
2021/11/17 07:45:54;;;;;;;12.55;7.78;;;8.70;96.50;;;;;;5054132;28;20020;-63
2021/11/17 07:48:23;;;;;;;12.88;8.77;;;8.70;96.30;;;;;;5059093;28;20025;-63
2021/11/17 07:50:49;;;;;;;13.10;8.30;;;8.70;96.30;;;;;;5051211;28;20032;-63
2021/11/17 07:53:17;;;;;;;16.73;8.57;;;8.80;96.30;;;;;;5057752;28;20219;-64
2021/11/17 07:55:44;;;;;;;11.27;7.10;;;8.80;96.30;;;;;;5050539;28;20051;-64
2021/11/17 07:58:10;;;;;;;13.35;8.23;;;8.70;96.30;;;;;;5057641;28;20561;-64
2021/11/17 08:00:40;;;;;;;12.60;7.88;;;8.70;96.30;;;;;;5055474;28;20086;-64
2021/11/17 08:03:08;;;;;;;12.45;7.30;;;8.70;96.40;;;;;;5055673;28;20100;-64
2021/11/17 08:05:33;;;;;;;12.38;7.70;;;8.70;96.40;;;;;;5052654;28;20037;-64
2021/11/17 08:08:01;;;;;;;13.00;7.75;;;8.60;96.30;;;;;;5061676;28;20059;-64
2021/11/17 08:10:28;;;;;;;12.73;8.10;;;8.70;96.30;;;;;;5058667;28;20032;-64
2021/11/17 08:12:54;;;;;;;14.63;7.97;;;8.70;96.30;;;;;;5061161;28;20092;-64
2021/11/17 08:15:20;;;;;;;15.23;8.52;;;8.70;96.30;;;;;;5060565;28;20045;-63
2021/11/17 08:17:45;;;;;;;15.20;8.30;;;8.70;96.40;;;;;;5060512;28;20035;-63
2021/11/17 08:20:14;;;;;;;13.15;7.85;;;8.60;96.40;;;;;;5052447;28;20048;-63
2021/11/17 08:22:40;;;;;;;13.27;8.23;;;8.60;96.40;;;;;;5055496;28;20033;-62
2021/11/17 08:25:08;;;;;;;13.18;8.60;;;8.60;96.40;;;;;;5061133;28;20112;-63
2021/11/17 08:27:34;;;;;;;14.70;9.30;;;8.60;96.50;;;;;;5068587;28;20029;-63
2021/11/17 08:29:59;;;;;;;12.90;7.85;;;8.70;96.60;;;;;;5063012;28;20380;-63
2021/11/17 08:32:25;;;;;;;13.82;8.13;;;8.70;96.60;;;;;;5055610;28;20060;-63
2021/11/17 08:34:51;;;;;;;13.40;8.10;;;8.70;96.60;;;;;;5059366;28;20032;-63
2021/11/17 08:37:18;;;;;;;14.50;8.95;;;8.70;96.60;;;;;;5057620;28;20504;-63
2021/11/17 08:39:45;;;;;;;15.13;8.63;;;8.70;96.60;;;;;;5053999;28;20075;-63
2021/11/17 08:42:13;;;;;;;15.82;8.55;;;8.70;96.60;;;;;;5054473;28;20025;-63
2021/11/17 08:44:39;;;;;;;14.43;8.60;;;8.70;96.60;;;;;;5052152;28;20051;-63
2021/11/17 08:47:07;;;;;;;14.45;8.38;;;8.70;96.60;;;;;;5061871;28;20028;-63
2021/11/17 08:49:34;;;;;;;14.20;8.63;;;8.70;96.60;;;;;;5063330;28;20415;-63
2021/11/17 08:52:00;;;;;;;14.65;8.27;;;8.70;96.60;;;;;;5063859;28;20044;-63
2021/11/17 08:54:26;;;;;;;16.00;8.32;;;8.60;96.60;;;;;;5052798;28;21939;-63
2021/11/17 08:56:52;;;;;;;14.55;9.18;;;8.60;96.70;;;;;;5062295;28;20056;-63
2021/11/17 08:59:17;;;;;;;17.23;8.88;;;8.60;96.70;;;;;;5053820;28;20029;-63
2021/11/17 09:01:43;;;;;;;15.88;8.90;;;8.70;96.70;;;;;;5060992;28;20028;-64
2021/11/17 09:04:09;;;;;;;15.10;9.38;;;8.70;96.70;;;;;;5063678;28;20020;-63
2021/11/17 09:06:38;;;;;;;16.08;10.02;;;8.70;96.70;;;;;;5055795;28;20523;-62
2021/11/17 09:09:08;;;;;;;15.82;9.02;;;8.70;96.80;;;;;;5056748;28;20056;-62
2021/11/17 09:11:38;;;;;;;16.02;9.63;;;8.70;96.80;;;;;;5052194;28;20032;-63
2021/11/17 09:14:04;;;;;;;14.80;9.30;;;8.70;96.90;;;;;;5050600;28;20113;-63
2021/11/17 09:16:32;;;;;;;16.90;9.57;;;8.70;96.80;;;;;;5066643;28;20350;-63
2021/11/17 09:18:58;;;;;;;16.88;9.77;;;8.70;96.80;;;;;;5051972;28;20033;-63
2021/11/17 09:21:25;;;;;;;17.25;10.07;;;8.70;96.80;;;;;;5052223;28;20029;-63
2021/11/17 09:23:51;;;;;;;14.93;8.70;;;8.80;96.90;;;;;;5055143;28;20074;-63
2021/11/17 09:26:21;;;;;;;14.70;8.95;;;8.80;96.80;;;;;;5057582;28;20024;-63
2021/11/17 09:28:48;;;;;;;16.60;9.68;;;8.90;96.80;;;;;;5065163;28;20416;-63
2021/11/17 09:31:13;;;;;;;14.95;8.25;;;8.80;96.70;;;;;;5052089;28;20056;-63
2021/11/17 09:33:39;;;;;;;14.13;8.85;;;8.90;96.70;;;;;;5063624;28;20056;-63
2021/11/17 09:36:06;;;;;;;16.75;9.48;;;8.90;96.70;;;;;;5051700;28;20021;-64
2021/11/17 09:38:32;;;;;;;19.70;8.98;;;8.90;96.70;;;;;;5065658;28;20111;-63
2021/11/17 09:41:00;;;;;;;17.45;9.68;;;8.90;96.90;;;;;;5059514;28;20041;-64
2021/11/17 09:43:33;;;;;;;15.48;9.25;;;9.00;96.80;;;;;;5051067;28;20033;-63
2021/11/17 09:46:00;;;;;;;17.52;9.13;;;8.90;96.80;;;;;;5058883;28;20025;-63
2021/11/17 09:48:31;;;;;;;16.38;8.98;;;9.00;96.80;;;;;;5055993;28;20028;-64
2021/11/17 09:51:11;;;;;;;15.10;8.57;;;9.00;96.80;;;;;;5057553;28;20032;-64
2021/11/17 09:53:45;;;;;;;15.10;9.05;;;9.00;96.70;;;;;;5051202;28;20029;-63
2021/11/17 09:56:17;;;;;;;17.10;8.07;;;9.10;96.60;;;;;;5052441;28;20044;-63
2021/11/17 09:58:51;;;;;;;14.98;9.10;;;9.10;96.60;;;;;;5069163;28;20064;-63
2021/11/17 10:01:28;;;;;;;13.75;9.23;;;9.10;96.50;;;;;;5052043;28;20171;-63
2021/11/17 10:04:21;;;;;;;13.75;8.40;;;9.10;96.50;;;;;;5052060;28;20032;-63
2021/11/17 10:08:06;;;;;;;14.85;8.15;;;9.10;96.50;;;;;;5061491;28;20029;-63
2021/11/17 10:13:42;;;;;;;14.25;8.85;;;9.10;96.40;;;;;;5058650;28;20091;-63
2021/11/17 10:16:08;;;;;;;14.20;8.40;;;9.10;96.40;;;;;;5054267;28;20029;-64
2021/11/17 10:18:43;;;;;;;14.18;7.82;;;9.10;96.40;;;;;;5061954;28;20036;-64
2021/11/17 10:21:31;;;;;;;13.20;7.45;;;9.10;96.30;;;;;;5054708;28;20272;-63
2021/11/17 10:24:20;;;;;;;13.75;8.25;;;9.20;96.30;;;;;;5055992;28;20374;-63
2021/11/17 10:26:59;;;;;;;14.63;8.48;;;9.10;96.30;;;;;;5058175;28;20381;-63
2021/11/17 10:29:41;;;;;;;16.98;9.80;;;9.10;96.20;;;;;;5057415;28;20025;-62
2021/11/17 10:32:42;;;;;;;11.88;7.35;;;9.20;96.30;;;;;;5058876;28;20389;-63
2021/11/17 10:35:29;;;;;;;12.35;7.40;;;9.20;96.20;;;;;;5009273;28;20098;-63
2021/11/17 10:38:03;;;;;;;12.18;8.02;;;9.20;96.10;;;;;;5058009;28;20119;-63
2021/11/17 10:40:32;;;;;;;15.70;8.13;;;9.30;96.10;;;;;;5064826;28;20444;-63
2021/11/17 10:43:07;;;;;;;14.45;7.45;;;9.30;96.00;;;;;;5050438;28;20527;-63
2021/11/17 10:45:45;;;;;;;14.20;7.68;;;9.30;96.00;;;;;;5052835;28;20116;-63
2021/11/17 10:48:39;;;;;;;13.27;7.78;;;9.30;96.00;;;;;;5066710;28;20525;-63
2021/11/17 10:51:16;;;;;;;12.95;7.53;;;9.30;96.00;;;;;;5058133;28;20033;-65
2021/11/17 10:53:47;;;;;;;13.80;7.90;;;9.30;95.90;;;;;;5050688;28;20370;-64
2021/11/17 10:56:15;;;;;;;12.27;7.80;;;9.30;95.90;;;;;;5055006;28;20044;-66
2021/11/17 10:58:44;;;;;;;14.73;7.70;;;9.30;95.90;;;;;;5057460;28;20029;-64
2021/11/17 11:01:26;;;;;;;13.73;7.32;;;9.30;95.90;;;;;;5064441;28;20040;-64
2021/11/17 11:03:57;;;;;;;11.55;7.25;;;9.30;95.90;;;;;;5063318;28;20499;-65
2021/11/17 11:06:37;;;;;;;13.18;7.70;;;9.30;95.90;;;;;;5057435;28;20029;-64
2021/11/17 11:09:13;;;;;;;12.82;7.65;;;9.30;95.80;;;;;;5058820;28;20508;-64
2021/11/17 11:11:46;;;;;;;13.00;8.13;;;9.30;95.80;;;;;;5063231;28;20386;-64
2021/11/17 11:14:48;;;;;;;11.88;7.43;;;9.30;95.80;;;;;;5059750;28;20056;-64
2021/11/17 11:17:41;;;;;;;14.85;8.65;;;9.30;95.80;;;;;;5026384;28;20097;-65
2021/11/17 11:20:16;;;;;;;14.20;7.90;;;9.30;95.80;;;;;;5069407;28;20514;-64
2021/11/17 11:23:07;;;;;;;13.52;7.47;;;9.30;95.90;;;;;;5051544;28;20028;-65
2021/11/17 11:25:39;;;;;;;14.38;8.32;;;9.30;95.90;;;;;;5051335;28;20563;-65
2021/11/17 11:28:25;;;;;;;15.77;8.23;;;9.30;95.90;;;;;;5051273;28;20083;-65
2021/11/17 11:31:12;;;;;;;13.90;7.95;;;9.30;95.90;;;;;;5054932;28;20040;-65
2021/11/17 11:33:50;;;;;;;20.25;9.20;;;9.30;95.80;;;;;;5057030;28;20025;-65
2021/11/17 11:36:15;;;;;;;14.73;9.00;;;9.40;95.90;;;;;;5057203;28;20473;-65
2021/11/17 11:38:49;;;;;;;14.93;8.13;;;9.40;95.80;;;;;;5068194;28;20036;-65
2021/11/17 11:41:29;;;;;;;14.88;8.75;;;9.40;95.80;;;;;;5055642;28;20040;-65
2021/11/17 11:44:24;;;;;;;12.27;7.75;;;9.40;95.80;;;;;;5059097;28;20067;-64
2021/11/17 11:46:55;;;;;;;15.63;8.05;;;9.50;95.80;;;;;;5062674;28;20099;-65
2021/11/17 11:49:35;;;;;;;16.02;8.02;;;9.40;95.80;;;;;;5059696;28;20047;-65
2021/11/17 11:52:20;;;;;;;12.35;7.75;;;9.50;95.70;;;;;;5062560;28;20504;-66
2021/11/17 11:54:54;;;;;;;16.23;7.73;;;9.50;95.70;;;;;;5061454;28;20037;-65
2021/11/17 11:57:20;;;;;;;;;;;9.50;95.80;;;;;;5057841;28;20048;-65
2021/11/17 11:59:47;;;;;;;13.00;7.35;;;9.50;95.70;;;;;;5053794;28;19986;-66
2021/11/17 12:02:19;;;;;;;12.57;8.02;;;9.40;95.70;;;;;;5069064;28;20472;-65
2021/11/17 12:04:48;;;;;;;12.60;7.05;;;9.40;95.80;;;;;;5055652;28;20036;-66
2021/11/17 12:07:24;;;;;;;13.82;7.85;;;9.40;95.70;;;;;;5061200;28;20032;-65
2021/11/17 12:10:11;;;;;;;12.20;7.07;;;9.50;95.70;;;;;;5058318;28;20389;-65
2021/11/17 12:12:40;;;;;;;13.90;7.90;;;9.50;95.70;;;;;;5053467;28;20037;-65
2021/11/17 12:15:24;;;;;;;13.27;8.00;;;9.40;95.60;;;;;;5053499;28;20440;-65
2021/11/17 12:18:06;;;;;;;10.10;6.75;;;9.40;95.60;;;;;;5063115;28;20029;-65
2021/11/17 12:20:35;;;;;;;11.90;7.75;;;9.40;95.60;;;;;;5061445;28;20045;-65
2021/11/17 12:23:15;;;;;;;15.15;8.02;;;9.40;95.60;;;;;;5061392;28;20032;-65
2021/11/17 12:25:40;;;;;;;12.55;7.47;;;9.40;95.60;;;;;;5058448;28;20044;-66
2021/11/17 12:28:12;;;;;;;13.98;8.77;;;9.40;95.60;;;;;;5053160;28;20025;-65
2021/11/17 12:31:06;;;;;;;13.77;8.07;;;9.40;95.60;;;;;;5053014;28;20409;-65
2021/11/17 12:33:40;;;;;;;13.48;7.80;;;9.40;95.60;;;;;;5059771;28;20052;-65
2021/11/17 12:36:20;;;;;;;11.07;7.38;;;9.40;95.70;;;;;;5062059;28;20040;-65
2021/11/17 12:38:46;;;;;;;13.30;7.72;;;9.40;95.60;;;;;;5062032;28;20111;-64
2021/11/17 12:41:21;;;;;;;12.32;7.03;;;9.40;95.60;;;;;;5060300;28;20120;-64
2021/11/17 12:44:02;;;;;;;11.30;7.05;;;9.30;95.60;;;;;;5067160;28;20032;-64
2021/11/17 12:46:33;;;;;;;13.20;7.47;;;9.40;95.60;;;;;;5062306;28;20374;-64
2021/11/17 12:49:20;;;;;;;12.82;7.43;;;9.40;95.50;;;;;;5052607;28;20040;-65
2021/11/17 12:51:55;;;;;;;11.73;7.53;;;9.40;95.50;;;;;;5062159;28;20053;-66
2021/11/17 12:54:46;;;;;;;13.88;7.88;;;9.40;95.50;;;;;;5052942;28;20048;-65
2021/11/17 12:57:29;;;;;;;9.88;6.60;;;9.50;95.50;;;;;;5056261;28;20045;-66
2021/11/17 13:00:11;;;;;;;10.13;6.57;;;9.50;95.40;;;;;;5058890;28;20045;-66
2021/11/17 13:02:48;;;;;;;10.30;5.90;;;9.60;95.40;;;;;;5061666;28;20031;-65
2021/11/17 13:05:40;;;;;;;9.00;5.78;;;9.60;95.40;;;;;;5053834;28;20036;-66
2021/11/17 13:08:18;;;;;;;7.78;5.28;;;9.60;95.30;;;;;;5063437;28;20055;-66
2021/11/17 13:10:49;;;;;;;11.13;5.95;;;9.60;95.20;;;;;;5057243;28;20036;-66
2021/11/17 13:13:21;;;;;;;9.93;6.10;;;9.70;95.20;;;;;;5062884;28;20087;-66
2021/11/17 13:15:56;;;;;;;11.65;6.25;;;9.70;95.20;;;;;;5052371;28;20036;-65
2021/11/17 13:18:44;;;;;;;12.68;6.38;;;9.80;95.10;;;;;;5059207;28;20029;-65
2021/11/17 13:21:35;;;;;;;10.00;6.10;;;9.80;95.10;;;;;;5052248;28;20120;-66
2021/11/17 13:24:12;;;;;;;9.10;5.75;;;9.80;95.10;;;;;;5055085;28;20029;-66
2021/11/17 13:26:44;;;;;;;8.23;5.57;;;9.90;95.00;;;;;;5058057;28;20079;-65
2021/11/17 13:29:29;;;;;;;10.02;5.88;;;9.90;94.90;;;;;;5053370;28;20456;-65
2021/11/17 13:32:03;;;;;;;;;;;9.90;94.90;;;;;;5054438;28;20045;-64
2021/11/17 13:34:47;;;;;;;7.40;4.97;;;9.90;95.00;;;;;;5058664;28;19962;-65
2021/11/17 13:37:36;;;;;;;8.98;5.15;;;9.90;94.90;;;;;;5059103;28;20028;-66
2021/11/17 13:40:09;;;;;;;11.27;5.85;;;9.90;94.90;;;;;;5052195;28;20033;-66
2021/11/17 13:42:36;;;;;;;8.50;5.45;;;10.00;94.80;;;;;;5060286;28;20066;-66
2021/11/17 13:45:08;;;;;;;9.82;6.18;;;9.90;94.80;;;;;;5059149;28;20025;-66
2021/11/17 13:47:33;;;;;;;9.10;5.50;;;9.90;94.80;;;;;;5052913;28;20071;-66
2021/11/17 13:49:59;;;;;;;10.27;6.38;;;9.90;94.80;;;;;;5052061;28;20060;-65
2021/11/17 13:52:32;;;;;;;10.40;6.03;;;9.90;94.80;;;;;;5064407;28;20044;-64
2021/11/17 13:54:59;;;;;;;11.55;5.95;;;9.90;94.70;;;;;;5058298;28;20021;-63
2021/11/17 13:57:26;;;;;;;12.20;6.90;;;9.90;94.70;;;;;;5057446;28;20044;-64
2021/11/17 13:59:52;;;;;;;10.73;6.40;;;9.90;94.80;;;;;;5061434;28;20041;-63
2021/11/17 14:02:17;;;;;;;9.82;5.85;;;9.90;94.80;;;;;;5066422;28;20021;-62
2021/11/17 14:04:43;;;;;;;13.57;7.70;;;10.00;94.80;;;;;;5059832;28;20029;-63
2021/11/17 14:07:13;;;;;;;12.00;7.45;;;10.00;94.70;;;;;;5059553;28;20045;-64
2021/11/17 14:09:38;;;;;;;14.93;8.30;;;10.00;94.70;;;;;;5069296;28;20108;-64
2021/11/17 14:12:06;;;;;;;12.27;8.55;;;10.00;94.60;;;;;;5067912;28;20262;-64
2021/11/17 14:14:32;;;;;;;11.90;7.45;;;10.00;94.60;;;;;;5053146;28;20329;-64
2021/11/17 14:16:57;;;;;;;10.90;7.30;;;10.00;94.60;;;;;;5053468;28;20377;-64
2021/11/17 14:19:23;;;;;;;12.32;7.55;;;10.00;94.60;;;;;;5051660;28;20036;-64
2021/11/17 14:21:49;;;;;;;11.05;7.18;;;10.00;94.60;;;;;;5055792;28;20047;-64
2021/11/17 14:24:14;;;;;;;10.60;6.93;;;10.00;94.60;;;;;;5062110;28;20485;-63
2021/11/17 14:26:42;;;;;;;12.30;7.35;;;10.00;94.60;;;;;;5050284;28;20037;-63
2021/11/17 14:29:13;;;;;;;10.95;6.70;;;10.00;94.70;;;;;;5050647;28;20640;-63
2021/11/17 14:31:43;;;;;;;9.32;6.20;;;10.00;94.60;;;;;;5053584;28;20105;-63
2021/11/17 14:34:09;;;;;;;9.70;6.55;;;10.00;94.60;;;;;;5055298;28;20171;-63
2021/11/17 14:36:45;;;;;;;11.80;6.13;;;10.00;94.60;;;;;;5054382;28;20167;-63
2021/11/17 14:39:13;;;;;;;13.93;7.30;;;10.00;94.60;;;;;;5057922;28;20036;-63
2021/11/17 14:41:39;;;;;;;11.77;7.35;;;10.00;94.50;;;;;;5051516;28;20061;-63
2021/11/17 14:44:06;;;;;;;13.45;7.88;;;10.00;94.60;;;;;;5050791;28;20499;-63
2021/11/17 14:46:32;;;;;;;13.07;8.07;;;10.00;94.60;;;;;;5049583;28;20033;-63
2021/11/17 14:48:58;;;;;;;13.13;7.90;;;10.00;94.60;;;;;;5050914;28;20025;-63
2021/11/17 14:51:24;;;;;;;13.07;8.50;;;10.00;94.60;;;;;;5050298;28;20033;-64
2021/11/17 14:53:51;;;;;;;14.60;7.53;;;10.00;94.60;;;;;;5052488;28;20025;-63
2021/11/17 14:56:18;;;;;;;13.35;9.15;;;10.00;94.60;;;;;;5058896;28;20045;-64
2021/11/17 14:58:44;;;;;;;12.98;7.55;;;10.00;94.70;;;;;;5049815;28;20056;-64
2021/11/17 15:01:17;;;;;;;11.73;7.68;;;10.00;94.60;;;;;;5053268;28;20052;-64
2021/11/17 15:03:44;;;;;;;12.75;7.10;;;10.00;94.70;;;;;;5054131;28;20033;-64
2021/11/17 15:06:10;;;;;;;12.43;7.10;;;9.90;94.70;;;;;;5059177;28;20033;-64
2021/11/17 15:08:36;;;;;;;12.20;6.85;;;10.00;94.80;;;;;;5059013;28;20060;-64
2021/11/17 15:11:01;;;;;;;11.75;7.63;;;10.00;94.90;;;;;;5061842;28;20067;-64
2021/11/17 15:13:27;;;;;;;13.15;7.63;;;10.00;95.00;;;;;;5053008;28;20074;-64
2021/11/17 15:15:55;;;;;;;12.07;7.18;;;9.90;95.10;;;;;;5058414;28;20082;-63
2021/11/17 15:18:22;;;;;;;13.73;7.65;;;9.90;95.20;;;;;;5058612;28;20060;-64
2021/11/17 15:20:48;;;;;;;11.20;7.03;;;9.90;95.30;;;;;;5053658;28;20040;-64
2021/11/17 15:23:15;;;;;;;15.43;7.85;;;9.90;95.40;;;;;;5053923;28;20082;-64
2021/11/17 15:25:44;;;;;;;12.50;7.05;;;9.90;95.50;;;;;;5053299;28;20036;-64
2021/11/17 15:28:23;;;;;;;14.73;8.07;;;9.90;95.50;;;;;;5054247;28;20104;-63
2021/11/17 15:30:54;;;;;;;14.50;7.93;;;9.80;95.60;;;;;;5059979;28;20046;-64
2021/11/17 15:33:20;;;;;;;14.70;8.18;;;9.90;95.60;;;;;;5069021;28;20032;-63
2021/11/17 15:35:46;;;;;;;12.25;6.90;;;9.80;95.70;;;;;;5057455;28;20758;-63
2021/11/17 15:38:12;;;;;;;13.70;6.93;;;9.90;95.70;;;;;;5060127;28;20017;-64
2021/11/17 15:40:50;;;;;;;15.25;7.47;;;9.80;95.70;;;;;;5054689;28;20044;-64
2021/11/17 15:43:17;;;;;;;11.50;6.30;;;9.80;95.80;;;;;;5058798;28;20048;-64
2021/11/17 15:45:43;;;;;;;12.27;6.50;;;9.80;95.70;;;;;;5053665;28;20079;-64
2021/11/17 15:48:09;;;;;;;13.52;7.28;;;9.80;95.70;;;;;;5053740;28;20082;-64
2021/11/17 15:50:41;;;;;;;12.63;6.07;;;9.80;95.80;;;;;;5053367;28;20029;-64
2021/11/17 15:53:07;;;;;;;11.15;6.35;;;9.80;95.80;;;;;;5054825;28;20063;-64
2021/11/17 15:55:34;;;;;;;10.05;5.90;;;9.70;95.70;;;;;;5065442;28;20044;-64
2021/11/17 15:58:01;;;;;;;13.20;6.40;;;9.70;95.80;;;;;;5062414;28;20520;-64